sensor_id;sensor_type;location;lat;lon;timestamp;pressure;altitude;pressure_sealevel;temperature;humidity
15229;BME280;7717;47.792;12.076;2023-01-25T00:02:12;97621.94;;;0.51;100.00
15229;BME280;7717;47.792;12.076;2023-01-25T00:04:38;97637.91;;;0.51;100.00
15229;BME280;7717;47.792;12.076;2023-01-25T00:07:04;97611.00;;;0.50;100.00
15229;BME280;7717;47.792;12.076;2023-01-25T00:09:29;97620.50;;;0.69;100.00
15229;BME280;7717;47.792;12.076;2023-01-25T00:11:54;97607.44;;;0.62;100.00
15229;BME280;7717;47.792;12.076;2023-01-25T00:14:23;97625.78;;;0.59;100.00
15229;BME280;7717;47.792;12.076;2023-01-25T00:16:49;97603.09;;;0.59;100.00
15229;BME280;7717;47.792;12.076;2023-01-25T00:19:14;97615.00;;;0.62;100.00
15229;BME280;7717;47.792;12.076;2023-01-25T00:21:40;97594.25;;;0.66;100.00
15229;BME280;7717;47.792;12.076;2023-01-25T00:24:05;97584.44;;;0.56;100.00
15229;BME280;7717;47.792;12.076;2023-01-25T00:26:32;97592.06;;;0.57;100.00
15229;BME280;7717;47.792;12.076;2023-01-25T00:28:58;97594.69;;;0.59;100.00
15229;BME280;7717;47.792;12.076;2023-01-25T00:40:43;97606.59;;;0.61;100.00
15229;BME280;7717;47.792;12.076;2023-01-25T00:43:08;97597.28;;;0.60;100.00
15229;BME280;7717;47.792;12.076;2023-01-25T00:45:33;97599.53;;;0.56;100.00
15229;BME280;7717;47.792;12.076;2023-01-25T00:47:59;97601.91;;;0.67;100.00
15229;BME280;7717;47.792;12.076;2023-01-25T00:50:24;97585.81;;;0.65;100.00
15229;BME280;7717;47.792;12.076;2023-01-25T00:59:34;97601.72;;;0.64;100.00
15229;BME280;7717;47.792;12.076;2023-01-25T01:02:00;97619.19;;;0.61;100.00
15229;BME280;7717;47.792;12.076;2023-01-25T01:04:26;97617.97;;;0.69;100.00
15229;BME280;7717;47.792;12.076;2023-01-25T01:15:41;97606.59;;;0.61;100.00
15229;BME280;7717;47.792;12.076;2023-01-25T01:18:06;97610.16;;;0.65;100.00
15229;BME280;7717;47.792;12.076;2023-01-25T01:20:32;97616.03;;;0.65;100.00
15229;BME280;7717;47.792;12.076;2023-01-25T01:22:57;97624.03;;;0.73;100.00
15229;BME280;7717;47.792;12.076;2023-01-25T01:25:22;97627.00;;;0.66;100.00
15229;BME280;7717;47.792;12.076;2023-01-25T01:27:48;97620.13;;;0.63;100.00
15229;BME280;7717;47.792;12.076;2023-01-25T01:30:13;97619.66;;;0.41;100.00
15229;BME280;7717;47.792;12.076;2023-01-25T01:32:38;97626.91;;;0.49;100.00
15229;BME280;7717;47.792;12.076;2023-01-25T01:35:04;97615.00;;;0.47;100.00
15229;BME280;7717;47.792;12.076;2023-01-25T01:37:30;97622.97;;;0.54;100.00
15229;BME280;7717;47.792;12.076;2023-01-25T01:39:55;97624.97;;;0.30;100.00
15229;BME280;7717;47.792;12.076;2023-01-25T01:42:20;97623.34;;;0.46;100.00
15229;BME280;7717;47.792;12.076;2023-01-25T01:44:51;97619.75;;;0.42;100.00
15229;BME280;7717;47.792;12.076;2023-01-25T01:47:24;97616.06;;;0.50;100.00
15229;BME280;7717;47.792;12.076;2023-01-25T01:49:59;97606.13;;;0.39;100.00
15229;BME280;7717;47.792;12.076;2023-01-25T01:52:29;97617.50;;;0.32;100.00
15229;BME280;7717;47.792;12.076;2023-01-25T01:55:02;97616.00;;;0.21;100.00
15229;BME280;7717;47.792;12.076;2023-01-25T01:57:40;97612.91;;;0.40;100.00
15229;BME280;7717;47.792;12.076;2023-01-25T02:00:10;97611.06;;;0.37;100.00
15229;BME280;7717;47.792;12.076;2023-01-25T02:02:39;97606.94;;;0.38;100.00
15229;BME280;7717;47.792;12.076;2023-01-25T02:05:08;97606.47;;;0.30;100.00
15229;BME280;7717;47.792;12.076;2023-01-25T02:07:37;97608.28;;;0.32;100.00
15229;BME280;7717;47.792;12.076;2023-01-25T02:10:09;97609.41;;;0.23;100.00
15229;BME280;7717;47.792;12.076;2023-01-25T02:12:36;97605.13;;;0.22;100.00
15229;BME280;7717;47.792;12.076;2023-01-25T02:15:03;97588.94;;;0.03;100.00
15229;BME280;7717;47.792;12.076;2023-01-25T02:17:29;97617.41;;;0.30;100.00
15229;BME280;7717;47.792;12.076;2023-01-25T02:20:05;97604.06;;;0.31;100.00
15229;BME280;7717;47.792;12.076;2023-01-25T02:23:00;97601.72;;;0.34;100.00
15229;BME280;7717;47.792;12.076;2023-01-25T02:25:27;97601.47;;;0.60;100.00
15229;BME280;7717;47.792;12.076;2023-01-25T02:27:58;97602.91;;;0.56;100.00
15229;BME280;7717;47.792;12.076;2023-01-25T02:30:25;97594.00;;;0.61;100.00
15229;BME280;7717;47.792;12.076;2023-01-25T02:32:50;97586.50;;;0.48;100.00
15229;BME280;7717;47.792;12.076;2023-01-25T02:35:20;97581.97;;;0.42;100.00
15229;BME280;7717;47.792;12.076;2023-01-25T02:37:47;97595.09;;;0.37;100.00
15229;BME280;7717;47.792;12.076;2023-01-25T02:40:13;97588.94;;;0.31;100.00
15229;BME280;7717;47.792;12.076;2023-01-25T02:42:41;97588.25;;;0.49;100.00
15229;BME280;7717;47.792;12.076;2023-01-25T02:45:11;97576.00;;;0.40;100.00
15229;BME280;7717;47.792;12.076;2023-01-25T02:47:38;97577.56;;;0.53;100.00
15229;BME280;7717;47.792;12.076;2023-01-25T02:50:04;97580.53;;;0.46;100.00
15229;BME280;7717;47.792;12.076;2023-01-25T02:52:29;97561.16;;;0.45;100.00
15229;BME280;7717;47.792;12.076;2023-01-25T02:54:54;97571.56;;;0.51;100.00
15229;BME280;7717;47.792;12.076;2023-01-25T02:57:20;97543.16;;;0.39;100.00
15229;BME280;7717;47.792;12.076;2023-01-25T02:59:45;97558.38;;;0.55;100.00
15229;BME280;7717;47.792;12.076;2023-01-25T03:02:10;97569.66;;;0.62;100.00
15229;BME280;7717;47.792;12.076;2023-01-25T03:04:36;97550.38;;;0.62;100.00
15229;BME280;7717;47.792;12.076;2023-01-25T03:07:01;97560.81;;;0.53;100.00
15229;BME280;7717;47.792;12.076;2023-01-25T03:09:26;97544.28;;;0.59;100.00
15229;BME280;7717;47.792;12.076;2023-01-25T03:11:52;97552.28;;;0.66;100.00
15229;BME280;7717;47.792;12.076;2023-01-25T03:14:17;97549.41;;;0.60;100.00
15229;BME280;7717;47.792;12.076;2023-01-25T03:16:42;97541.69;;;0.57;100.00
15229;BME280;7717;47.792;12.076;2023-01-25T03:19:08;97541.09;;;0.46;100.00
15229;BME280;7717;47.792;12.076;2023-01-25T03:21:34;97521.38;;;0.24;100.00
15229;BME280;7717;47.792;12.076;2023-01-25T03:24:00;97544.66;;;0.35;100.00
15229;BME280;7717;47.792;12.076;2023-01-25T03:26:27;97546.13;;;0.46;100.00
15229;BME280;7717;47.792;12.076;2023-01-25T03:28:53;97546.22;;;0.48;100.00
15229;BME280;7717;47.792;12.076;2023-01-25T03:31:18;97551.75;;;0.57;100.00
15229;BME280;7717;47.792;12.076;2023-01-25T03:33:47;97559.75;;;0.50;100.00
15229;BME280;7717;47.792;12.076;2023-01-25T03:36:14;97561.50;;;0.51;100.00
15229;BME280;7717;47.792;12.076;2023-01-25T03:38:39;97559.50;;;0.60;100.00
15229;BME280;7717;47.792;12.076;2023-01-25T03:41:04;97554.53;;;0.47;100.00
15229;BME280;7717;47.792;12.076;2023-01-25T03:43:30;97564.09;;;0.52;100.00
15229;BME280;7717;47.792;12.076;2023-01-25T03:45:58;97553.69;;;0.31;100.00
15229;BME280;7717;47.792;12.076;2023-01-25T03:48:24;97568.16;;;0.35;100.00
15229;BME280;7717;47.792;12.076;2023-01-25T03:50:52;97563.66;;;0.30;100.00
15229;BME280;7717;47.792;12.076;2023-01-25T03:53:18;97553.59;;;0.45;100.00
15229;BME280;7717;47.792;12.076;2023-01-25T03:55:54;97557.31;;;0.37;100.00
15229;BME280;7717;47.792;12.076;2023-01-25T03:58:20;97557.16;;;0.33;100.00
15229;BME280;7717;47.792;12.076;2023-01-25T04:00:46;97542.03;;;0.18;100.00
15229;BME280;7717;47.792;12.076;2023-01-25T04:03:11;97555.75;;;0.39;100.00
15229;BME280;7717;47.792;12.076;2023-01-25T04:05:39;97561.41;;;0.34;100.00
15229;BME280;7717;47.792;12.076;2023-01-25T04:08:04;97545.16;;;0.29;100.00
15229;BME280;7717;47.792;12.076;2023-01-25T04:10:30;97556.13;;;0.30;100.00
15229;BME280;7717;47.792;12.076;2023-01-25T04:12:55;97547.06;;;0.33;100.00
15229;BME280;7717;47.792;12.076;2023-01-25T04:15:20;97549.59;;;0.33;100.00
15229;BME280;7717;47.792;12.076;2023-01-25T04:17:46;97561.75;;;0.41;100.00
15229;BME280;7717;47.792;12.076;2023-01-25T04:20:11;97538.66;;;0.33;100.00
15229;BME280;7717;47.792;12.076;2023-01-25T04:22:36;97552.81;;;0.31;100.00
15229;BME280;7717;47.792;12.076;2023-01-25T04:25:02;97555.75;;;0.39;100.00
15229;BME280;7717;47.792;12.076;2023-01-25T04:27:27;97556.97;;;0.30;100.00
15229;BME280;7717;47.792;12.076;2023-01-25T04:29:53;97547.25;;;0.37;100.00
15229;BME280;7717;47.792;12.076;2023-01-25T04:32:18;97540.56;;;0.22;100.00
15229;BME280;7717;47.792;12.076;2023-01-25T04:34:43;97547.06;;;0.18;100.00
15229;BME280;7717;47.792;12.076;2023-01-25T04:37:09;97554.59;;;0.18;100.00
15229;BME280;7717;47.792;12.076;2023-01-25T04:39:34;97545.25;;;0.31;100.00
15229;BME280;7717;47.792;12.076;2023-01-25T04:42:00;97545.34;;;0.17;100.00
15229;BME280;7717;47.792;12.076;2023-01-25T04:44:25;97535.53;;;0.22;100.00
15229;BME280;7717;47.792;12.076;2023-01-25T04:46:50;97529.44;;;0.33;100.00
15229;BME280;7717;47.792;12.076;2023-01-25T04:49:16;97530.13;;;0.31;100.00
15229;BME280;7717;47.792;12.076;2023-01-25T04:51:41;97533.19;;;0.40;100.00
15229;BME280;7717;47.792;12.076;2023-01-25T04:54:06;97517.72;;;0.19;100.00
15229;BME280;7717;47.792;12.076;2023-01-25T04:56:32;97520.94;;;0.31;100.00
15229;BME280;7717;47.792;12.076;2023-01-25T04:58:57;97520.66;;;0.12;100.00
15229;BME280;7717;47.792;12.076;2023-01-25T05:01:22;97529.00;;;0.26;100.00
15229;BME280;7717;47.792;12.076;2023-01-25T05:03:48;97512.06;;;0.08;100.00
15229;BME280;7717;47.792;12.076;2023-01-25T05:06:13;97519.28;;;0.02;100.00
15229;BME280;7717;47.792;12.076;2023-01-25T05:08:39;97505.88;;;-0.12;100.00
15229;BME280;7717;47.792;12.076;2023-01-25T05:11:04;97521.44;;;0.11;100.00
15229;BME280;7717;47.792;12.076;2023-01-25T05:13:30;97517.72;;;0.19;100.00
15229;BME280;7717;47.792;12.076;2023-01-25T05:15:55;97524.66;;;0.08;100.00
15229;BME280;7717;47.792;12.076;2023-01-25T05:18:21;97521.97;;;0.20;100.00
15229;BME280;7717;47.792;12.076;2023-01-25T05:20:47;97514.16;;;0.15;100.00
15229;BME280;7717;47.792;12.076;2023-01-25T05:23:12;97521.88;;;0.18;100.00
15229;BME280;7717;47.792;12.076;2023-01-25T05:25:37;97520.75;;;0.13;100.00
15229;BME280;7717;47.792;12.076;2023-01-25T05:28:21;97526.72;;;0.15;100.00
15229;BME280;7717;47.792;12.076;2023-01-25T05:30:47;97520.66;;;0.12;100.00
15229;BME280;7717;47.792;12.076;2023-01-25T05:33:12;97511.19;;;0.08;100.00
15229;BME280;7717;47.792;12.076;2023-01-25T05:35:38;97515.44;;;0.09;100.00
15229;BME280;7717;47.792;12.076;2023-01-25T05:38:03;97507.41;;;0.14;100.00
15229;BME280;7717;47.792;12.076;2023-01-25T05:40:28;97506.78;;;0.04;100.00
15229;BME280;7717;47.792;12.076;2023-01-25T05:42:57;97505.22;;;0.21;100.00
15229;BME280;7717;47.792;12.076;2023-01-25T05:45:26;97484.66;;;0.13;100.00
15229;BME280;7717;47.792;12.076;2023-01-25T05:47:57;97492.63;;;0.06;100.00
15229;BME280;7717;47.792;12.076;2023-01-25T05:50:23;97488.72;;;0.11;100.00
15229;BME280;7717;47.792;12.076;2023-01-25T05:52:49;97488.34;;;0.05;100.00
15229;BME280;7717;47.792;12.076;2023-01-25T05:55:15;97484.19;;;0.20;100.00
15229;BME280;7717;47.792;12.076;2023-01-25T05:57:40;97483.25;;;0.18;100.00
15229;BME280;7717;47.792;12.076;2023-01-25T06:00:07;97489.88;;;0.16;100.00
15229;BME280;7717;47.792;12.076;2023-01-25T06:02:32;97487.69;;;0.22;100.00
15229;BME280;7717;47.792;12.076;2023-01-25T06:04:58;97493.06;;;0.13;100.00
15229;BME280;7717;47.792;12.076;2023-01-25T06:07:23;97498.25;;;0.02;100.00
15229;BME280;7717;47.792;12.076;2023-01-25T06:09:49;97485.16;;;0.07;100.00
15229;BME280;7717;47.792;12.076;2023-01-25T06:12:14;97483.69;;;0.11;100.00
15229;BME280;7717;47.792;12.076;2023-01-25T06:14:40;97473.44;;;0.08;100.00
15229;BME280;7717;47.792;12.076;2023-01-25T06:17:06;97484.03;;;0.02;100.00
15229;BME280;7717;47.792;12.076;2023-01-25T06:19:32;97480.72;;;0.03;100.00
15229;BME280;7717;47.792;12.076;2023-01-25T06:21:57;97486.38;;;0.14;100.00
15229;BME280;7717;47.792;12.076;2023-01-25T06:24:22;97479.59;;;-0.17;100.00
15229;BME280;7717;47.792;12.076;2023-01-25T06:26:48;97478.81;;;-0.01;100.00
15229;BME280;7717;47.792;12.076;2023-01-25T06:29:13;97481.59;;;-0.11;100.00
15229;BME280;7717;47.792;12.076;2023-01-25T06:31:38;97483.78;;;-0.03;100.00
15229;BME280;7717;47.792;12.076;2023-01-25T06:34:04;97479.50;;;-0.04;100.00
15229;BME280;7717;47.792;12.076;2023-01-25T06:36:30;97480.41;;;-0.03;100.00
15229;BME280;7717;47.792;12.076;2023-01-25T06:38:56;97459.13;;;-0.08;100.00
15229;BME280;7717;47.792;12.076;2023-01-25T06:41:21;97472.31;;;0.03;100.00
15229;BME280;7717;47.792;12.076;2023-01-25T06:43:49;97473.59;;;-0.19;100.00
15229;BME280;7717;47.792;12.076;2023-01-25T06:46:15;97468.91;;;-0.13;100.00
15229;BME280;7717;47.792;12.076;2023-01-25T06:48:40;97479.25;;;-0.23;100.00
15229;BME280;7717;47.792;12.076;2023-01-25T06:51:09;97486.78;;;-0.23;100.00
15229;BME280;7717;47.792;12.076;2023-01-25T06:53:37;97482.56;;;-0.09;100.00
15229;BME280;7717;47.792;12.076;2023-01-25T06:58:31;97486.88;;;-0.07;100.00
15229;BME280;7717;47.792;12.076;2023-01-25T07:01:04;97485.44;;;-0.03;100.00
15229;BME280;7717;47.792;12.076;2023-01-25T07:03:30;97462.22;;;-0.27;100.00
15229;BME280;7717;47.792;12.076;2023-01-25T07:06:00;97485.75;;;0.03;100.00
15229;BME280;7717;47.792;12.076;2023-01-25T07:08:27;97473.44;;;0.08;100.00
15229;BME280;7717;47.792;12.076;2023-01-25T07:10:58;97471.88;;;-0.05;100.00
15229;BME280;7717;47.792;12.076;2023-01-25T07:13:24;97455.72;;;0.06;100.00
15229;BME280;7717;47.792;12.076;2023-01-25T07:16:01;97464.94;;;0.06;100.00
15229;BME280;7717;47.792;12.076;2023-01-25T07:18:28;97457.22;;;0.03;100.00
15229;BME280;7717;47.792;12.076;2023-01-25T07:21:03;97454.50;;;-0.01;100.00
15229;BME280;7717;47.792;12.076;2023-01-25T07:23:30;97447.25;;;0.19;100.00
15229;BME280;7717;47.792;12.076;2023-01-25T07:25:56;97437.50;;;0.10;100.00
15229;BME280;7717;47.792;12.076;2023-01-25T07:28:22;97435.94;;;0.12;100.00
15229;BME280;7717;47.792;12.076;2023-01-25T07:30:47;97437.00;;;0.16;100.00
15229;BME280;7717;47.792;12.076;2023-01-25T07:33:13;97429.06;;;0.25;100.00
15229;BME280;7717;47.792;12.076;2023-01-25T07:35:39;97426.47;;;0.23;100.00
15229;BME280;7717;47.792;12.076;2023-01-25T07:38:05;97438.03;;;0.34;100.00
15229;BME280;7717;47.792;12.076;2023-01-25T07:40:30;97432.66;;;0.28;100.00
15229;BME280;7717;47.792;12.076;2023-01-25T07:42:55;97445.84;;;0.24;100.00
15229;BME280;7717;47.792;12.076;2023-01-25T07:45:21;97436.28;;;0.33;100.00
15229;BME280;7717;47.792;12.076;2023-01-25T07:47:46;97421.09;;;0.32;100.00
15229;BME280;7717;47.792;12.076;2023-01-25T07:50:12;97438.19;;;0.23;100.00
15229;BME280;7717;47.792;12.076;2023-01-25T07:52:38;97426.38;;;0.37;100.00
15229;BME280;7717;47.792;12.076;2023-01-25T07:55:03;97436.03;;;0.60;100.00
15229;BME280;7717;47.792;12.076;2023-01-25T07:57:29;97431.56;;;0.40;100.00
15229;BME280;7717;47.792;12.076;2023-01-25T07:59:54;97424.53;;;0.49;100.00
15229;BME280;7717;47.792;12.076;2023-01-25T08:02:20;97437.84;;;0.31;100.00
15229;BME280;7717;47.792;12.076;2023-01-25T08:04:45;97435.22;;;0.45;100.00
15229;BME280;7717;47.792;12.076;2023-01-25T08:07:12;97426.16;;;0.48;100.00
15229;BME280;7717;47.792;12.076;2023-01-25T08:09:38;97432.16;;;0.50;100.00
15229;BME280;7717;47.792;12.076;2023-01-25T08:12:03;97438.03;;;0.66;100.00
15229;BME280;7717;47.792;12.076;2023-01-25T08:14:29;97450.06;;;0.86;100.00
15229;BME280;7717;47.792;12.076;2023-01-25T08:16:54;97437.97;;;0.64;100.00
15229;BME280;7717;47.792;12.076;2023-01-25T08:19:20;97440.31;;;0.46;100.00
15229;BME280;7717;47.792;12.076;2023-01-25T08:21:46;97447.38;;;0.37;100.00
15229;BME280;7717;47.792;12.076;2023-01-25T08:24:12;97438.06;;;0.51;100.00
15229;BME280;7717;47.792;12.076;2023-01-25T08:26:37;97441.28;;;0.48;100.00
15229;BME280;7717;47.792;12.076;2023-01-25T08:29:04;97443.19;;;0.52;100.00
15229;BME280;7717;47.792;12.076;2023-01-25T08:31:31;97444.13;;;0.54;100.00
15229;BME280;7717;47.792;12.076;2023-01-25T08:33:58;97439.50;;;0.62;100.00
15229;BME280;7717;47.792;12.076;2023-01-25T08:36:24;97436.97;;;0.77;100.00
15229;BME280;7717;47.792;12.076;2023-01-25T08:38:54;97437.91;;;0.79;100.00
15229;BME280;7717;47.792;12.076;2023-01-25T08:41:20;97425.97;;;0.60;100.00
15229;BME280;7717;47.792;12.076;2023-01-25T08:43:46;97433.19;;;0.54;100.00
15229;BME280;7717;47.792;12.076;2023-01-25T08:46:12;97431.66;;;0.73;100.00
15229;BME280;7717;47.792;12.076;2023-01-25T08:48:38;97430.06;;;0.89;100.00
15229;BME280;7717;47.792;12.076;2023-01-25T08:51:06;97422.53;;;0.75;100.00
15229;BME280;7717;47.792;12.076;2023-01-25T08:53:32;97419.91;;;1.04;100.00
15229;BME280;7717;47.792;12.076;2023-01-25T08:56:05;97415.63;;;0.87;100.00
15229;BME280;7717;47.792;12.076;2023-01-25T08:58:31;97423.34;;;0.74;100.00
15229;BME280;7717;47.792;12.076;2023-01-25T09:01:01;97420.75;;;0.88;100.00
15229;BME280;7717;47.792;12.076;2023-01-25T09:03:27;97422.91;;;0.97;100.00
15229;BME280;7717;47.792;12.076;2023-01-25T09:05:53;97404.56;;;0.68;100.00
15229;BME280;7717;47.792;12.076;2023-01-25T09:08:18;97420.56;;;0.69;100.00
15229;BME280;7717;47.792;12.076;2023-01-25T09:10:44;97427.75;;;0.78;100.00
15229;BME280;7717;47.792;12.076;2023-01-25T09:13:09;97426.53;;;1.02;100.00
15229;BME280;7717;47.792;12.076;2023-01-25T09:15:34;97415.19;;;1.11;100.00
15229;BME280;7717;47.792;12.076;2023-01-25T09:18:00;97420.94;;;1.24;100.00
15229;BME280;7717;47.792;12.076;2023-01-25T09:20:25;97408.91;;;1.19;100.00
15229;BME280;7717;47.792;12.076;2023-01-25T09:22:51;97392.66;;;0.97;100.00
15229;BME280;7717;47.792;12.076;2023-01-25T09:25:16;97402.28;;;1.21;100.00
15229;BME280;7717;47.792;12.076;2023-01-25T09:27:41;97397.53;;;1.27;100.00
15229;BME280;7717;47.792;12.076;2023-01-25T09:30:08;97406.34;;;1.35;100.00
15229;BME280;7717;47.792;12.076;2023-01-25T09:32:35;97393.75;;;1.19;100.00
15229;BME280;7717;47.792;12.076;2023-01-25T09:35:01;97405.41;;;1.17;100.00
15229;BME280;7717;47.792;12.076;2023-01-25T09:37:26;97404.06;;;1.40;100.00
15229;BME280;7717;47.792;12.076;2023-01-25T09:39:51;97393.44;;;1.46;100.00
15229;BME280;7717;47.792;12.076;2023-01-25T09:47:44;97380.97;;;2.01;100.00
15229;BME280;7717;47.792;12.076;2023-01-25T09:50:37;97375.63;;;1.95;100.00
15229;BME280;7717;47.792;12.076;2023-01-25T09:53:16;97369.03;;;2.33;100.00
15229;BME280;7717;47.792;12.076;2023-01-25T09:55:43;97371.84;;;2.39;100.00
15229;BME280;7717;47.792;12.076;2023-01-25T09:58:13;97365.69;;;2.34;100.00
15229;BME280;7717;47.792;12.076;2023-01-25T10:00:44;97369.47;;;2.42;100.00
15229;BME280;7717;47.792;12.076;2023-01-25T10:03:23;97353.88;;;2.33;100.00
15229;BME280;7717;47.792;12.076;2023-01-25T10:05:52;97359.34;;;2.42;100.00
15229;BME280;7717;47.792;12.076;2023-01-25T10:08:43;97357.97;;;2.31;100.00
15229;BME280;7717;47.792;12.076;2023-01-25T10:11:30;97344.03;;;2.03;100.00
15229;BME280;7717;47.792;12.076;2023-01-25T10:13:56;97339.94;;;2.05;100.00
15229;BME280;7717;47.792;12.076;2023-01-25T10:16:32;97349.97;;;2.40;100.00
15229;BME280;7717;47.792;12.076;2023-01-25T10:21:47;97339.97;;;2.80;100.00
15229;BME280;7717;47.792;12.076;2023-01-25T10:24:36;97335.44;;;2.36;100.00
15229;BME280;7717;47.792;12.076;2023-01-25T10:29:51;97331.16;;;2.52;100.00
15229;BME280;7717;47.792;12.076;2023-01-25T10:32:27;97323.50;;;2.51;100.00
15229;BME280;7717;47.792;12.076;2023-01-25T10:35:09;97322.44;;;2.46;100.00
15229;BME280;7717;47.792;12.076;2023-01-25T10:37:37;97312.34;;;2.28;100.00
15229;BME280;7717;47.792;12.076;2023-01-25T10:40:13;97309.75;;;2.64;100.00
15229;BME280;7717;47.792;12.076;2023-01-25T10:43:02;97304.38;;;2.76;100.00
15229;BME280;7717;47.792;12.076;2023-01-25T10:45:30;97302.28;;;3.26;100.00
15229;BME280;7717;47.792;12.076;2023-01-25T10:48:00;97289.81;;;2.70;100.00
15229;BME280;7717;47.792;12.076;2023-01-25T10:53:37;97303.25;;;2.69;100.00
15229;BME280;7717;47.792;12.076;2023-01-25T10:58:40;97261.47;;;2.77;100.00
15229;BME280;7717;47.792;12.076;2023-01-25T11:01:08;97286.34;;;3.28;100.00
15229;BME280;7717;47.792;12.076;2023-01-25T11:03:36;97282.38;;;2.93;100.00
15229;BME280;7717;47.792;12.076;2023-01-25T11:06:02;97281.94;;;3.22;100.00
15229;BME280;7717;47.792;12.076;2023-01-25T11:10:53;97266.50;;;2.97;100.00
15229;BME280;7717;47.792;12.076;2023-01-25T11:13:22;97263.94;;;2.76;100.00
15229;BME280;7717;47.792;12.076;2023-01-25T11:18:49;97266.97;;;3.08;100.00
15229;BME280;7717;47.792;12.076;2023-01-25T11:21:23;97257.63;;;2.66;100.00
15229;BME280;7717;47.792;12.076;2023-01-25T11:26:37;97251.81;;;2.88;100.00
15229;BME280;7717;47.792;12.076;2023-01-25T11:29:20;97242.63;;;2.90;100.00
15229;BME280;7717;47.792;12.076;2023-01-25T11:31:48;97246.00;;;3.10;100.00
15229;BME280;7717;47.792;12.076;2023-01-25T11:34:18;97245.16;;;3.31;100.00
15229;BME280;7717;47.792;12.076;2023-01-25T11:37:14;97222.78;;;2.99;100.00
15229;BME280;7717;47.792;12.076;2023-01-25T11:40:01;97209.59;;;3.49;100.00
15229;BME280;7717;47.792;12.076;2023-01-25T11:51:07;97204.59;;;3.50;100.00
15229;BME280;7717;47.792;12.076;2023-01-25T11:54:03;97192.59;;;3.90;100.00
15229;BME280;7717;47.792;12.076;2023-01-25T12:10:39;97176.72;;;3.28;100.00
15229;BME280;7717;47.792;12.076;2023-01-25T12:18:43;97157.94;;;3.43;100.00
15229;BME280;7717;47.792;12.076;2023-01-25T12:21:20;97157.13;;;3.45;100.00
15229;BME280;7717;47.792;12.076;2023-01-25T12:26:52;97145.91;;;3.38;100.00
15229;BME280;7717;47.792;12.076;2023-01-25T12:29:25;97152.00;;;3.43;100.00
15229;BME280;7717;47.792;12.076;2023-01-25T12:32:04;97135.91;;;3.41;100.00
15229;BME280;7717;47.792;12.076;2023-01-25T12:34:41;97114.72;;;3.39;100.00
15229;BME280;7717;47.792;12.076;2023-01-25T12:37:22;97125.66;;;3.60;100.00
15229;BME280;7717;47.792;12.076;2023-01-25T12:40:00;97127.84;;;3.51;100.00
15229;BME280;7717;47.792;12.076;2023-01-25T12:42:36;97118.38;;;3.46;100.00
15229;BME280;7717;47.792;12.076;2023-01-25T12:45:15;97095.00;;;3.30;100.00
15229;BME280;7717;47.792;12.076;2023-01-25T12:47:54;97101.94;;;3.13;100.00
15229;BME280;7717;47.792;12.076;2023-01-25T12:55:32;97112.19;;;3.16;100.00
15229;BME280;7717;47.792;12.076;2023-01-25T13:01:18;97098.81;;;3.19;100.00
15229;BME280;7717;47.792;12.076;2023-01-25T13:06:51;97102.69;;;2.90;100.00
15229;BME280;7717;47.792;12.076;2023-01-25T13:09:22;97094.72;;;3.01;100.00
15229;BME280;7717;47.792;12.076;2023-01-25T13:11:51;97104.59;;;2.95;100.00
15229;BME280;7717;47.792;12.076;2023-01-25T13:16:53;97102.59;;;2.86;100.00
15229;BME280;7717;47.792;12.076;2023-01-25T13:19:39;97092.16;;;2.79;100.00
15229;BME280;7717;47.792;12.076;2023-01-25T13:22:12;97103.69;;;2.72;100.00
15229;BME280;7717;47.792;12.076;2023-01-25T13:27:31;97101.41;;;2.78;100.00
15229;BME280;7717;47.792;12.076;2023-01-25T13:30:28;97100.59;;;2.58;100.00
15229;BME280;7717;47.792;12.076;2023-01-25T13:32:56;97103.47;;;2.46;100.00
15229;BME280;7717;47.792;12.076;2023-01-25T13:35:26;97091.88;;;2.30;100.00
15229;BME280;7717;47.792;12.076;2023-01-25T13:38:24;97101.38;;;2.36;100.00
15229;BME280;7717;47.792;12.076;2023-01-25T13:41:13;97079.81;;;2.25;100.00
15229;BME280;7717;47.792;12.076;2023-01-25T13:43:43;97102.03;;;2.12;100.00
15229;BME280;7717;47.792;12.076;2023-01-25T13:46:13;97098.38;;;2.25;100.00
15229;BME280;7717;47.792;12.076;2023-01-25T13:48:54;97097.06;;;1.94;100.00
15229;BME280;7717;47.792;12.076;2023-01-25T13:51:23;97099.31;;;2.08;100.00
15229;BME280;7717;47.792;12.076;2023-01-25T13:53:55;97102.69;;;2.28;100.00
15229;BME280;7717;47.792;12.076;2023-01-25T13:56:33;97098.19;;;2.21;100.00
15229;BME280;7717;47.792;12.076;2023-01-25T13:59:00;97085.50;;;2.00;100.00
15229;BME280;7717;47.792;12.076;2023-01-25T14:01:27;97094.25;;;2.08;100.00
15229;BME280;7717;47.792;12.076;2023-01-25T14:03:58;97094.25;;;2.08;100.00
15229;BME280;7717;47.792;12.076;2023-01-25T14:06:29;97090.06;;;1.89;100.00
15229;BME280;7717;47.792;12.076;2023-01-25T14:08:58;97098.13;;;1.80;100.00
15229;BME280;7717;47.792;12.076;2023-01-25T14:11:27;97089.03;;;1.84;100.00
15229;BME280;7717;47.792;12.076;2023-01-25T14:14:24;97098.72;;;1.74;100.00
15229;BME280;7717;47.792;12.076;2023-01-25T14:17:16;97094.84;;;1.63;100.00
15229;BME280;7717;47.792;12.076;2023-01-25T14:19:44;97087.28;;;1.83;100.00
15229;BME280;7717;47.792;12.076;2023-01-25T14:22:32;97091.81;;;1.90;100.00
15229;BME280;7717;47.792;12.076;2023-01-25T14:25:14;97091.78;;;1.70;100.00
15229;BME280;7717;47.792;12.076;2023-01-25T14:28:01;97083.44;;;1.71;100.00
15229;BME280;7717;47.792;12.076;2023-01-25T14:30:34;97076.38;;;1.64;100.00
15229;BME280;7717;47.792;12.076;2023-01-25T14:35:45;97074.94;;;1.69;100.00
15229;BME280;7717;47.792;12.076;2023-01-25T14:40:45;97075.72;;;1.49;100.00
15229;BME280;7717;47.792;12.076;2023-01-25T14:43:15;97070.59;;;1.47;100.00
15229;BME280;7717;47.792;12.076;2023-01-25T14:45:42;97067.06;;;1.43;100.00
15229;BME280;7717;47.792;12.076;2023-01-25T14:48:33;97068.31;;;1.34;100.00
15229;BME280;7717;47.792;12.076;2023-01-25T14:51:11;97065.06;;;1.36;100.00
15229;BME280;7717;47.792;12.076;2023-01-25T14:53:40;97051.22;;;1.28;100.00
15229;BME280;7717;47.792;12.076;2023-01-25T14:56:50;97063.97;;;1.31;100.00